Time;durP1;ratioP1;P1;durP2;ratioP2;P2;SDS_P1;SDS_P2;PMS_P1;PMS_P2;Temp;Humidity;BMP_temperature;BMP_pressure;BME280_temperature;BME280_humidity;BME280_pressure;Samples;Min_cycle;Max_cycle;Signal;HPM_P1;HPM_P2
2022/01/30 00:00:36;;;;;;;9.73;2.28;;;7.60;99.90;;;;;;4738024;30;20094;-92
2022/01/30 00:03:04;;;;;;;18.88;4.60;;;7.60;99.90;;;;;;4738770;30;20147;-91
2022/01/30 00:05:38;;;;;;;19.90;4.00;;;7.60;99.90;;;;;;4727512;30;20151;-91
2022/01/30 00:08:05;;;;;;;15.38;2.90;;;7.50;99.90;;;;;;4737988;30;20405;-91
2022/01/30 00:10:38;;;;;;;15.98;3.67;;;7.50;99.90;;;;;;4737630;30;20083;-92
2022/01/30 00:13:13;;;;;;;18.23;3.47;;;7.50;99.90;;;;;;4738963;30;20083;-91
2022/01/30 00:15:57;;;;;;;22.23;2.30;;;7.50;99.90;;;;;;4737434;30;20552;-91
2022/01/30 00:21:31;;;;;;;12.27;2.30;;;7.40;99.90;;;;;;4734633;30;20111;-92
2022/01/30 00:24:10;;;;;;;19.13;2.80;;;7.50;99.90;;;;;;4720095;30;20057;-93
2022/01/30 00:26:39;;;;;;;14.88;3.42;;;7.40;99.90;;;;;;4720320;30;20052;-92
2022/01/30 00:29:14;;;;;;;10.50;2.15;;;7.40;99.90;;;;;;4720018;30;20148;-92
2022/01/30 00:31:49;;;;;;;17.70;2.60;;;7.40;99.90;;;;;;4719775;30;20057;-92
2022/01/30 00:34:48;;;;;;;22.77;2.90;;;7.40;99.90;;;;;;4720072;30;20812;-92
2022/01/30 00:37:26;;;;;;;16.73;3.47;;;7.40;99.90;;;;;;4719791;30;20080;-92
2022/01/30 00:39:54;;;;;;;26.08;3.45;;;7.40;99.90;;;;;;4705520;30;20380;-92
2022/01/30 00:42:22;;;;;;;14.90;2.63;;;7.40;99.90;;;;;;4721215;30;20056;-92
2022/01/30 00:44:49;;;;;;;21.70;4.05;;;7.40;99.90;;;;;;4719559;30;20060;-93
2022/01/30 00:47:30;;;;;;;25.58;3.08;;;7.40;99.90;;;;;;4719623;30;20085;-93
2022/01/30 00:50:12;;;;;;;16.15;2.95;;;7.30;99.90;;;;;;4719040;30;20059;-92
2022/01/30 00:52:53;;;;;;;22.85;3.65;;;7.40;99.90;;;;;;4727501;30;20053;-90
2022/01/30 00:55:33;;;;;;;22.42;4.82;;;7.30;99.90;;;;;;4719803;30;20049;-91
2022/01/30 00:58:04;;;;;;;21.17;3.20;;;7.30;99.90;;;;;;4705695;30;20056;-92
2022/01/30 01:00:35;;;;;;;19.15;3.42;;;7.40;99.90;;;;;;4719523;30;20050;-91
2022/01/30 01:03:04;;;;;;;10.00;2.25;;;7.30;99.90;;;;;;4719545;30;20563;-92
2022/01/30 01:05:38;;;;;;;6.97;1.85;;;7.30;99.90;;;;;;4720847;30;20055;-91
2022/01/30 01:08:19;;;;;;;17.77;2.80;;;7.30;99.90;;;;;;4719211;30;20045;-92
2022/01/30 01:10:57;;;;;;;14.35;2.10;;;7.30;99.90;;;;;;4721430;30;20057;-92
2022/01/30 01:24:07;;;;;;;24.80;3.42;;;7.20;99.90;;;;;;4719133;30;20049;-91
2022/01/30 01:26:36;;;;;;;23.48;3.78;;;7.20;99.90;;;;;;4720328;30;20059;-92
2022/01/30 01:29:09;;;;;;;11.07;1.85;;;7.20;99.90;;;;;;4708121;30;20049;-92
2022/01/30 01:31:51;;;;;;;24.58;3.50;;;7.20;99.90;;;;;;4706799;30;20057;-92
2022/01/30 01:36:54;;;;;;;15.43;2.20;;;7.20;99.90;;;;;;4718931;30;20426;-92
2022/01/30 01:39:22;;;;;;;13.35;2.00;;;7.20;99.90;;;;;;4719300;30;20069;-91
2022/01/30 01:41:52;;;;;;;17.80;3.25;;;7.20;99.90;;;;;;4705072;30;20385;-92
2022/01/30 01:44:45;;;;;;;23.95;3.50;;;7.20;99.90;;;;;;4704928;30;20053;-92
2022/01/30 01:47:14;;;;;;;18.13;3.05;;;7.20;99.90;;;;;;4724259;30;20053;-92
2022/01/30 01:49:43;;;;;;;13.38;2.40;;;7.20;99.90;;;;;;4704736;30;20068;-93
2022/01/30 01:54:49;;;;;;;18.77;3.55;;;7.20;99.90;;;;;;4718942;30;20080;-92
2022/01/30 01:57:20;;;;;;;11.80;3.08;;;7.20;99.90;;;;;;4718569;30;20107;-92
2022/01/30 02:00:06;;;;;;;15.43;2.58;;;7.20;99.90;;;;;;4718804;30;20057;-92
2022/01/30 02:02:40;;;;;;;16.48;2.85;;;7.20;99.90;;;;;;4719368;30;20060;-92
2022/01/30 02:05:10;;;;;;;20.55;3.63;;;7.20;99.90;;;;;;4726889;30;20041;-91
2022/01/30 02:10:47;;;;;;;10.70;2.50;;;7.10;99.90;;;;;;4735282;30;20061;-92
2022/01/30 02:14:02;;;;;;;10.93;2.67;;;7.20;99.90;;;;;;4735297;30;20463;-92
2022/01/30 02:25:34;;;;;;;19.38;3.03;;;7.20;99.90;;;;;;4735455;30;20049;-92
2022/01/30 02:28:07;;;;;;;10.82;4.40;;;7.10;99.90;;;;;;4720899;30;20059;-91
2022/01/30 02:30:42;;;;;;;18.70;3.08;;;7.10;99.90;;;;;;4721421;30;20048;-91
2022/01/30 02:33:21;;;;;;;11.63;1.67;;;7.10;99.90;;;;;;4721373;30;20106;-91
2022/01/30 02:36:24;;;;;;;17.98;3.25;;;7.10;99.90;;;;;;4735254;30;20051;-91
2022/01/30 02:39:12;;;;;;;13.55;2.30;;;7.10;99.90;;;;;;4723743;30;20420;-91
2022/01/30 02:41:43;;;;;;;27.42;2.80;;;7.00;99.90;;;;;;4723526;30;20048;-90
2022/01/30 02:44:24;;;;;;;13.13;3.55;;;7.00;99.90;;;;;;4722845;30;20120;-91
2022/01/30 02:47:00;;;;;;;18.77;2.40;;;7.10;99.90;;;;;;4723651;30;20450;-91
2022/01/30 02:50:08;;;;;;;15.38;3.22;;;7.10;99.90;;;;;;4737232;30;20056;-91
2022/01/30 02:52:35;;;;;;;29.55;2.95;;;7.00;99.90;;;;;;4735530;30;20057;-91
2022/01/30 02:55:04;;;;;;;16.48;2.33;;;7.00;99.90;;;;;;4720265;30;20057;-92
2022/01/30 02:57:31;;;;;;;17.33;4.10;;;7.00;99.90;;;;;;4734745;30;20059;-91
2022/01/30 02:59:59;;;;;;;9.90;2.83;;;7.00;99.90;;;;;;4734840;30;20415;-91
2022/01/30 03:02:33;;;;;;;23.50;2.85;;;7.00;99.90;;;;;;4734800;30;20045;-93
2022/01/30 03:05:15;;;;;;;15.38;2.85;;;7.00;99.90;;;;;;4734937;30;20048;-92
2022/01/30 03:07:52;;;;;;;16.38;2.72;;;7.00;99.90;;;;;;4735117;30;20052;-92
2022/01/30 03:10:20;;;;;;;20.48;3.85;;;7.00;99.90;;;;;;4735151;30;20057;-92
2022/01/30 03:12:52;;;;;;;19.05;2.92;;;7.00;99.90;;;;;;4734518;30;20065;-91
2022/01/30 03:15:21;;;;;;;12.80;2.92;;;7.00;99.90;;;;;;4735398;30;20569;-91
2022/01/30 03:17:49;;;;;;;16.30;3.90;;;7.00;99.90;;;;;;4720337;30;20527;-92
2022/01/30 03:20:19;;;;;;;19.27;4.15;;;7.00;99.90;;;;;;4734766;30;20060;-91
2022/01/30 03:22:49;;;;;;;21.88;4.03;;;6.90;99.90;;;;;;4720524;30;20144;-92
2022/01/30 03:25:19;;;;;;;20.75;2.40;;;6.90;99.90;;;;;;4734394;30;20053;-91
2022/01/30 03:27:54;;;;;;;20.70;3.65;;;6.90;99.90;;;;;;4734668;30;20562;-91
2022/01/30 03:30:29;;;;;;;21.20;3.65;;;6.90;99.90;;;;;;4720501;30;20064;-92
2022/01/30 03:33:05;;;;;;;21.08;3.55;;;6.90;99.90;;;;;;4735170;30;20052;-91
2022/01/30 03:35:34;;;;;;;12.38;3.30;;;6.90;99.90;;;;;;4720196;30;20056;-90
2022/01/30 03:38:03;;;;;;;16.92;2.75;;;6.90;99.90;;;;;;4720481;30;20140;-92
2022/01/30 03:40:32;;;;;;;31.77;3.22;;;6.90;99.90;;;;;;4734319;30;20130;-91
2022/01/30 03:43:04;;;;;;;13.77;3.35;;;6.90;99.90;;;;;;4734437;30;20044;-91
2022/01/30 03:45:33;;;;;;;17.40;3.65;;;6.90;99.90;;;;;;4734618;30;20045;-92
2022/01/30 03:48:04;;;;;;;18.95;2.90;;;6.90;99.90;;;;;;4734581;30;20056;-91
2022/01/30 03:50:53;;;;;;;26.63;4.53;;;6.90;99.90;;;;;;4731765;30;20067;-91
2022/01/30 03:53:21;;;;;;;20.65;3.53;;;6.90;99.90;;;;;;4734367;30;20052;-92
2022/01/30 03:55:48;;;;;;;16.20;4.35;;;6.90;99.90;;;;;;4734547;30;20052;-92
2022/01/30 03:58:24;;;;;;;15.68;3.33;;;6.90;99.90;;;;;;4734163;30;20055;-92
2022/01/30 04:00:53;;;;;;;25.45;3.90;;;6.90;99.90;;;;;;4734531;30;20091;-90
2022/01/30 04:03:24;;;;;;;14.40;2.83;;;6.90;99.90;;;;;;4734748;30;20049;-91
2022/01/30 04:05:53;;;;;;;25.73;4.13;;;6.90;99.90;;;;;;4734603;30;20102;-92
2022/01/30 04:08:22;;;;;;;20.63;4.30;;;6.80;99.90;;;;;;4719877;30;20053;-92
2022/01/30 04:11:02;;;;;;;32.92;4.13;;;6.80;99.90;;;;;;4721624;30;20056;-91
2022/01/30 04:14:01;;;;;;;14.07;3.85;;;6.80;99.90;;;;;;4730624;30;20089;-92
2022/01/30 04:16:37;;;;;;;14.20;2.15;;;6.80;99.90;;;;;;4720795;30;20088;-92
2022/01/30 04:19:25;;;;;;;25.80;4.85;;;6.80;99.90;;;;;;4734519;30;20075;-91
2022/01/30 04:22:23;;;;;;;22.30;3.50;;;6.80;99.90;;;;;;4723303;30;20052;-93
2022/01/30 04:25:25;;;;;;;18.25;2.72;;;6.80;99.90;;;;;;4733179;30;20080;-92
2022/01/30 04:28:23;;;;;;;23.45;3.97;;;6.80;99.90;;;;;;4723074;30;20059;-91
2022/01/30 04:31:24;;;;;;;16.45;3.47;;;6.80;99.90;;;;;;4724410;30;20129;-91
2022/01/30 04:34:25;;;;;;;18.65;4.20;;;6.80;99.90;;;;;;4705447;30;20064;-92
2022/01/30 04:37:25;;;;;;;13.45;3.13;;;6.80;99.90;;;;;;4724574;30;20142;-91
2022/01/30 05:01:03;;;;;;;23.30;3.63;;;6.80;99.90;;;;;;4738517;30;20063;-91
2022/01/30 05:04:03;;;;;;;24.90;4.20;;;6.80;99.90;;;;;;4734312;30;20080;-91
2022/01/30 05:09:38;;;;;;;23.95;3.50;;;6.80;99.90;;;;;;4737975;30;20075;-91
2022/01/30 05:12:31;;;;;;;26.05;5.15;;;6.80;99.90;;;;;;4724356;30;20053;-92
2022/01/30 05:15:21;;;;;;;15.35;2.88;;;6.70;99.90;;;;;;4727530;30;20584;-91
2022/01/30 05:18:07;;;;;;;20.17;4.25;;;6.80;99.90;;;;;;4736758;30;20145;-92
2022/01/30 05:21:10;;;;;;;36.08;5.13;;;6.70;99.90;;;;;;4725450;30;20102;-91
2022/01/30 05:24:08;;;;;;;20.95;4.05;;;6.70;99.90;;;;;;4712449;30;20074;-92
2022/01/30 05:26:46;;;;;;;21.77;3.88;;;6.70;99.90;;;;;;4736595;30;20057;-92
2022/01/30 05:29:37;;;;;;;32.75;5.53;;;6.70;99.90;;;;;;4735848;30;20058;-92
2022/01/30 05:32:14;;;;;;;32.95;4.03;;;6.70;99.90;;;;;;4723431;30;20057;-91
2022/01/30 05:34:52;;;;;;;15.93;4.78;;;6.70;99.90;;;;;;4724000;30;20052;-92
2022/01/30 05:37:39;;;;;;;24.70;4.00;;;6.70;99.90;;;;;;4724090;30;20041;-91
2022/01/30 05:40:25;;;;;;;21.90;3.13;;;6.60;99.90;;;;;;4737109;30;20059;-92
2022/01/30 05:43:17;;;;;;;27.50;3.92;;;6.70;99.90;;;;;;4724697;30;20057;-93
2022/01/30 05:46:29;;;;;;;28.58;4.00;;;6.70;99.90;;;;;;4726791;30;20055;-92
2022/01/30 05:49:21;;;;;;;26.10;3.17;;;6.70;99.90;;;;;;4736332;30;20153;-92
2022/01/30 05:52:11;;;;;;;15.27;3.30;;;6.70;99.90;;;;;;4736640;30;20061;-91
2022/01/30 05:54:52;;;;;;;23.55;4.05;;;6.60;99.90;;;;;;4736380;30;20076;-92
2022/01/30 05:57:19;;;;;;;19.98;3.45;;;6.70;99.90;;;;;;4735949;30;20049;-91
2022/01/30 05:59:49;;;;;;;20.77;4.10;;;6.70;99.90;;;;;;4741166;30;20455;-92
2022/01/30 06:02:38;;;;;;;23.83;3.08;;;6.70;99.90;;;;;;4736552;30;20102;-90
2022/01/30 06:05:08;;;;;;;21.50;2.92;;;6.70;99.90;;;;;;4736486;30;20048;-92
2022/01/30 06:07:45;;;;;;;28.10;4.60;;;6.70;99.90;;;;;;4736384;30;20060;-91
2022/01/30 06:10:13;;;;;;;24.80;3.45;;;6.70;99.90;;;;;;4736208;30;20052;-92
2022/01/30 06:12:40;;;;;;;12.93;3.08;;;6.70;99.90;;;;;;4735967;30;20049;-91
2022/01/30 06:15:08;;;;;;;28.15;4.50;;;6.70;99.90;;;;;;4721011;30;20048;-92
2022/01/30 06:17:37;;;;;;;28.08;5.05;;;6.70;99.90;;;;;;4735650;30;20099;-91
2022/01/30 06:20:24;;;;;;;13.93;2.50;;;6.70;99.90;;;;;;4735765;30;20147;-91
2022/01/30 06:23:15;;;;;;;21.13;3.10;;;6.70;99.90;;;;;;4727444;30;20128;-91
2022/01/30 06:26:01;;;;;;;25.35;4.65;;;6.60;99.90;;;;;;4736910;30;20194;-92
2022/01/30 06:28:47;;;;;;;27.65;3.75;;;6.60;99.90;;;;;;4735553;30;20067;-91
2022/01/30 06:31:45;;;;;;;30.83;5.15;;;6.60;99.90;;;;;;4735494;30;20048;-92
2022/01/30 06:34:31;;;;;;;28.90;4.53;;;6.60;99.90;;;;;;4735856;30;20514;-91
2022/01/30 06:37:27;;;;;;;46.53;5.88;;;6.60;99.90;;;;;;4736144;30;20565;-91
2022/01/30 06:40:12;;;;;;;21.25;3.85;;;6.50;99.90;;;;;;4722658;30;20060;-91
2022/01/30 06:43:01;;;;;;;30.13;5.68;;;6.50;99.90;;;;;;4735767;30;20110;-92
2022/01/30 06:45:59;;;;;;;17.63;4.18;;;6.50;99.90;;;;;;4735810;30;20144;-92
2022/01/30 06:48:52;;;;;;;17.60;2.80;;;6.50;99.90;;;;;;4735217;30;20210;-93
2022/01/30 06:51:41;;;;;;;17.35;4.68;;;6.50;99.90;;;;;;4735374;30;20063;-91
2022/01/30 06:54:27;;;;;;;21.27;3.03;;;6.50;99.90;;;;;;4736299;30;20064;-91
2022/01/30 06:57:17;;;;;;;18.90;3.33;;;6.50;99.90;;;;;;4735397;30;20083;-92
2022/01/30 07:00:09;;;;;;;23.70;4.10;;;6.60;99.90;;;;;;4735289;30;20071;-91
2022/01/30 07:03:00;;;;;;;22.60;4.35;;;6.50;99.90;;;;;;4736507;30;20531;-92
2022/01/30 07:05:46;;;;;;;22.92;5.70;;;6.50;99.90;;;;;;4722715;30;20106;-91
2022/01/30 07:08:26;;;;;;;27.10;4.30;;;6.50;99.90;;;;;;4734943;30;20056;-91
2022/01/30 07:10:58;;;;;;;20.60;4.53;;;6.50;99.90;;;;;;4720360;30;20056;-91
2022/01/30 07:13:25;;;;;;;23.88;2.90;;;6.50;99.90;;;;;;4735026;30;20535;-91
2022/01/30 07:15:55;;;;;;;25.15;5.55;;;6.50;99.90;;;;;;4734605;30;20456;-92
2022/01/30 07:18:24;;;;;;;25.48;3.25;;;6.50;99.90;;;;;;4720548;30;20053;-91
2022/01/30 07:20:55;;;;;;;21.85;3.63;;;6.50;99.90;;;;;;4734990;30;20045;-91
2022/01/30 07:23:26;;;;;;;20.90;4.70;;;6.50;99.90;;;;;;4720366;30;20071;-91
2022/01/30 07:26:04;;;;;;;20.67;4.32;;;6.50;99.90;;;;;;4735098;30;20044;-91
2022/01/30 07:28:31;;;;;;;24.15;3.88;;;6.50;99.90;;;;;;4732828;30;20063;-90
2022/01/30 07:30:58;;;;;;;28.45;4.75;;;6.50;99.90;;;;;;4733527;30;20648;-92
2022/01/30 07:33:27;;;;;;;22.58;4.40;;;6.40;99.90;;;;;;4734081;30;20057;-91
2022/01/30 07:35:56;;;;;;;33.53;4.63;;;6.50;99.90;;;;;;4734057;30;20060;-90
2022/01/30 07:38:44;;;;;;;32.22;4.88;;;6.50;99.90;;;;;;4734726;30;20510;-92
2022/01/30 07:41:17;;;;;;;35.28;3.13;;;6.50;99.90;;;;;;4732306;30;20524;-90
2022/01/30 07:44:41;;;;;;;30.20;4.20;;;6.50;99.90;;;;;;4736678;30;20132;-93
2022/01/30 07:47:57;;;;;;;34.30;5.55;;;6.50;99.90;;;;;;4734396;30;20055;-93
2022/01/30 07:50:54;;;;;;;;;;;6.50;99.90;;;;;;4837749;24;20603;-92
2022/01/30 07:53:21;;;;;;;21.48;3.75;;;6.50;99.90;;;;;;4716659;30;19933;-90
2022/01/30 07:55:48;;;;;;;29.50;5.15;;;6.50;99.90;;;;;;4731273;30;20053;-91
2022/01/30 07:58:15;;;;;;;16.80;3.33;;;6.50;99.90;;;;;;4716914;30;20409;-92
2022/01/30 08:00:46;;;;;;;21.73;4.30;;;6.50;99.90;;;;;;4716917;30;20064;-91
2022/01/30 08:03:18;;;;;;;25.35;5.40;;;6.50;99.90;;;;;;4717427;30;20049;-92
2022/01/30 08:06:12;;;;;;;34.20;4.60;;;6.50;99.90;;;;;;4717528;30;20540;-91
2022/01/30 08:08:40;;;;;;;31.50;4.78;;;6.50;99.90;;;;;;4716505;30;20103;-91
2022/01/30 08:11:10;;;;;;;27.58;4.32;;;6.50;99.90;;;;;;4717726;30;20053;-89
2022/01/30 08:13:40;;;;;;;32.13;6.25;;;6.40;99.90;;;;;;4719951;30;20075;-91
2022/01/30 08:16:10;;;;;;;32.38;4.70;;;6.40;99.90;;;;;;4720075;30;20060;-92
2022/01/30 08:18:58;;;;;;;29.35;4.40;;;6.40;99.90;;;;;;4705713;30;20074;-91
2022/01/30 08:21:42;;;;;;;34.15;5.82;;;6.50;99.90;;;;;;4720674;30;20056;-91
2022/01/30 08:24:19;;;;;;;28.80;4.35;;;6.50;99.90;;;;;;4720274;30;20381;-91
2022/01/30 08:27:12;;;;;;;26.83;3.97;;;6.50;99.90;;;;;;4719753;30;20397;-92
2022/01/30 08:29:57;;;;;;;22.13;4.43;;;6.50;99.90;;;;;;4706477;30;20057;-91
2022/01/30 08:32:31;;;;;;;18.25;3.05;;;6.60;99.90;;;;;;4719435;30;20358;-92
2022/01/30 08:34:59;;;;;;;20.52;3.95;;;6.50;99.90;;;;;;4719930;30;20485;-92
2022/01/30 08:37:29;;;;;;;19.92;4.43;;;6.50;99.90;;;;;;4719840;30;20081;-91
2022/01/30 08:39:56;;;;;;;23.55;4.97;;;6.50;99.90;;;;;;4719595;30;20049;-91
2022/01/30 08:42:28;;;;;;;25.42;5.35;;;6.60;99.90;;;;;;4721772;30;20397;-88
2022/01/30 08:44:55;;;;;;;26.75;5.15;;;6.60;99.90;;;;;;4723675;30;20048;-90
2022/01/30 08:47:37;;;;;;;28.25;5.03;;;6.60;99.90;;;;;;4710839;30;20393;-89
2022/01/30 08:50:07;;;;;;;19.40;3.65;;;6.60;99.90;;;;;;4719656;30;20068;-89
2022/01/30 08:52:34;;;;;;;33.30;5.38;;;6.60;99.90;;;;;;4704675;30;20053;-90
2022/01/30 08:55:05;;;;;;;27.23;4.20;;;6.60;99.90;;;;;;4719178;30;20489;-90
2022/01/30 08:57:32;;;;;;;33.58;5.03;;;6.60;99.90;;;;;;4704164;30;20522;-89
2022/01/30 09:00:00;;;;;;;22.52;4.13;;;6.60;99.90;;;;;;4718510;30;20041;-90
2022/01/30 09:02:27;;;;;;;32.85;5.22;;;6.60;99.90;;;;;;4718361;30;20053;-89
2022/01/30 09:04:54;;;;;;;17.73;3.63;;;6.60;99.90;;;;;;4718239;30;20049;-90
2022/01/30 09:07:21;;;;;;;23.33;4.68;;;6.60;99.90;;;;;;4718639;30;20107;-89
2022/01/30 09:09:48;;;;;;;35.30;5.15;;;6.70;99.90;;;;;;4718466;30;20057;-89
2022/01/30 09:12:15;;;;;;;32.28;5.97;;;6.70;99.90;;;;;;4718443;30;20045;-89
2022/01/30 09:14:43;;;;;;;22.83;4.13;;;6.70;99.90;;;;;;4718269;30;20049;-90
2022/01/30 09:17:15;;;;;;;29.70;5.00;;;6.70;99.90;;;;;;4718194;30;20504;-90
2022/01/30 09:19:47;;;;;;;21.35;4.30;;;6.80;99.90;;;;;;4718331;30;20056;-90
2022/01/30 09:22:18;;;;;;;34.40;4.93;;;6.80;99.90;;;;;;4718137;30;20470;-90
2022/01/30 09:24:45;;;;;;;23.23;4.18;;;6.80;99.90;;;;;;4703870;30;20088;-90
2022/01/30 09:27:13;;;;;;;35.85;5.82;;;6.80;99.90;;;;;;4719513;30;20051;-90
2022/01/30 09:29:43;;;;;;;41.22;5.97;;;6.80;99.90;;;;;;4718026;30;20053;-90
2022/01/30 09:32:11;;;;;;;33.80;4.13;;;6.80;99.90;;;;;;4722988;30;20127;-90
2022/01/30 09:34:38;;;;;;;32.33;4.25;;;6.80;99.90;;;;;;4704049;30;20057;-90
2022/01/30 09:37:08;;;;;;;25.83;4.45;;;6.80;99.90;;;;;;4704060;30;20056;-90
2022/01/30 09:39:36;;;;;;;28.35;4.57;;;6.80;99.90;;;;;;4725992;30;20059;-89
2022/01/30 09:42:04;;;;;;;25.73;3.90;;;6.80;99.90;;;;;;4718034;30;20060;-90
2022/01/30 09:44:36;;;;;;;36.58;6.65;;;6.80;99.90;;;;;;4719210;30;20056;-90
2022/01/30 09:47:03;;;;;;;45.20;5.25;;;6.80;99.90;;;;;;4703248;30;20057;-90
2022/01/30 09:49:30;;;;;;;28.13;4.95;;;6.90;99.90;;;;;;4717917;30;20394;-90
2022/01/30 09:51:58;;;;;;;21.67;4.63;;;6.90;99.90;;;;;;4703069;30;20061;-89
2022/01/30 09:54:25;;;;;;;27.48;4.63;;;7.00;99.90;;;;;;4719104;30;20111;-90
2022/01/30 09:56:52;;;;;;;35.42;6.03;;;7.00;99.90;;;;;;4722788;30;20056;-90
2022/01/30 09:59:21;;;;;;;17.77;3.42;;;7.00;99.90;;;;;;4703122;30;20057;-90
2022/01/30 10:01:48;;;;;;;25.70;4.43;;;7.00;99.90;;;;;;4717617;30;20523;-90
2022/01/30 10:04:16;;;;;;;26.13;4.65;;;7.10;99.90;;;;;;4717416;30;20144;-90
2022/01/30 10:07:03;;;;;;;24.25;5.00;;;7.10;99.90;;;;;;4714323;30;20054;-90
2022/01/30 10:09:35;;;;;;;21.20;3.80;;;7.10;99.90;;;;;;4700127;30;20068;-89
2022/01/30 10:12:19;;;;;;;27.63;4.50;;;7.10;99.90;;;;;;4701284;30;20052;-89
2022/01/30 10:15:07;;;;;;;35.78;6.00;;;7.10;99.90;;;;;;4702060;30;20053;-89
2022/01/30 10:17:47;;;;;;;26.30;5.30;;;7.10;99.90;;;;;;4699540;30;20050;-90
2022/01/30 10:20:39;;;;;;;25.00;3.50;;;7.10;99.90;;;;;;4687503;30;20060;-90
2022/01/30 10:23:10;;;;;;;30.52;4.68;;;7.10;99.90;;;;;;4701185;30;20507;-90
2022/01/30 10:25:49;;;;;;;29.45;4.70;;;7.10;99.90;;;;;;4699357;30;20447;-89
2022/01/30 10:28:19;;;;;;;32.55;5.63;;;7.20;99.90;;;;;;4699338;30;20048;-89
2022/01/30 10:30:49;;;;;;;35.88;5.32;;;7.20;99.90;;;;;;4699300;30;20061;-90
2022/01/30 10:33:19;;;;;;;30.75;6.10;;;7.20;99.90;;;;;;4699098;30;20164;-90
2022/01/30 10:35:58;;;;;;;30.83;4.32;;;7.20;99.90;;;;;;4700874;30;20050;-90
2022/01/30 10:38:37;;;;;;;25.92;4.53;;;7.20;99.90;;;;;;4699047;30;20076;-90
2022/01/30 10:41:20;;;;;;;31.67;5.60;;;7.20;99.90;;;;;;4700677;30;20124;-90
2022/01/30 10:43:54;;;;;;;25.05;4.97;;;7.30;99.90;;;;;;4690387;30;20057;-90
2022/01/30 10:46:21;;;;;;;27.45;4.00;;;7.30;99.90;;;;;;4707367;30;20141;-90
2022/01/30 10:49:07;;;;;;;41.67;4.55;;;7.20;99.90;;;;;;4699370;30;20155;-90
2022/01/30 10:51:34;;;;;;;35.20;5.35;;;7.30;99.90;;;;;;4699558;30;20069;-90
2022/01/30 10:54:13;;;;;;;28.50;4.63;;;7.20;99.90;;;;;;4716420;30;20049;-89
2022/01/30 10:56:40;;;;;;;26.50;4.45;;;7.30;99.90;;;;;;4721473;30;20054;-89
2022/01/30 10:59:16;;;;;;;28.02;3.97;;;7.30;99.90;;;;;;4703354;30;20144;-90
2022/01/30 11:01:48;;;;;;;28.70;4.22;;;7.30;99.90;;;;;;4699869;30;20136;-89
2022/01/30 11:04:30;;;;;;;25.02;4.82;;;7.30;99.90;;;;;;4699758;30;20114;-89
2022/01/30 11:07:04;;;;;;;28.23;4.60;;;7.40;99.90;;;;;;4699170;30;20045;-89
2022/01/30 11:09:37;;;;;;;39.22;5.30;;;7.30;99.90;;;;;;4699809;30;20053;-90
2022/01/30 11:12:13;;;;;;;24.02;5.25;;;7.40;99.90;;;;;;4706462;30;20053;-89
2022/01/30 11:17:18;;;;;;;21.90;4.25;;;7.50;99.90;;;;;;4700125;30;20065;-89
2022/01/30 11:19:51;;;;;;;28.98;5.00;;;7.50;99.90;;;;;;4712929;30;20057;-89
2022/01/30 11:22:21;;;;;;;22.97;5.03;;;7.50;99.90;;;;;;4699207;30;20386;-90
2022/01/30 11:24:49;;;;;;;37.90;5.00;;;7.50;99.90;;;;;;4698846;30;20650;-89
2022/01/30 11:27:18;;;;;;;31.35;5.38;;;7.50;99.90;;;;;;4700015;30;20049;-89
2022/01/30 11:29:45;;;;;;;27.25;5.60;;;7.50;99.90;;;;;;4698829;30;20058;-90
2022/01/30 11:32:15;;;;;;;35.65;4.97;;;7.60;99.90;;;;;;4700227;30;20084;-89
2022/01/30 11:34:44;;;;;;;24.77;4.47;;;7.60;99.90;;;;;;4699966;30;20093;-89
2022/01/30 11:37:14;;;;;;;18.55;4.13;;;7.60;99.90;;;;;;4684634;30;20495;-89
2022/01/30 11:39:47;;;;;;;25.27;5.57;;;7.60;99.90;;;;;;4698478;30;20520;-90
2022/01/30 11:42:18;;;;;;;17.70;4.55;;;7.60;99.90;;;;;;4701093;30;20050;-89
2022/01/30 11:44:50;;;;;;;29.30;5.50;;;7.60;99.90;;;;;;4688017;30;20116;-90
2022/01/30 11:47:52;;;;;;;21.83;3.88;;;7.70;99.90;;;;;;4703292;30;20186;-90
2022/01/30 11:50:20;;;;;;;21.75;3.42;;;7.70;99.90;;;;;;4688105;30;20077;-90
2022/01/30 11:53:06;;;;;;;17.27;3.58;;;7.80;99.90;;;;;;4687724;30;20085;-90
2022/01/30 11:56:00;;;;;;;19.80;5.75;;;7.80;99.90;;;;;;4716399;30;20497;-90
2022/01/30 11:58:30;;;;;;;20.80;3.97;;;7.80;99.90;;;;;;4701636;30;20468;-90
2022/01/30 12:00:59;;;;;;;20.25;4.18;;;7.80;99.90;;;;;;4710336;30;20159;-90
2022/01/30 12:03:37;;;;;;;21.25;4.20;;;7.90;99.90;;;;;;4701890;30;20057;-90
2022/01/30 12:06:37;;;;;;;29.48;4.15;;;7.90;99.90;;;;;;4705169;30;20124;-90
2022/01/30 12:09:20;;;;;;;28.70;4.65;;;7.90;99.90;;;;;;4706695;30;20061;-90
2022/01/30 12:11:47;;;;;;;27.55;4.28;;;7.90;99.90;;;;;;4719109;30;20129;-90
2022/01/30 12:14:20;;;;;;;12.63;3.35;;;8.00;99.90;;;;;;4720267;30;20053;-90
2022/01/30 12:16:57;;;;;;;29.88;4.13;;;8.00;99.90;;;;;;4718945;30;20061;-90
2022/01/30 12:19:30;;;;;;;22.45;4.53;;;8.00;99.90;;;;;;4723955;30;20128;-91
2022/01/30 12:21:59;;;;;;;20.98;3.83;;;8.00;99.90;;;;;;4718844;30;20462;-90
2022/01/30 12:24:28;;;;;;;22.83;3.67;;;8.00;99.90;;;;;;4720280;30;20132;-90
2022/01/30 12:27:02;;;;;;;22.40;4.43;;;8.00;99.90;;;;;;4727026;30;20061;-90
2022/01/30 12:29:41;;;;;;;21.88;6.18;;;8.10;99.90;;;;;;4720060;30;20493;-90
2022/01/30 12:32:34;;;;;;;24.75;4.60;;;8.10;99.90;;;;;;4719142;30;20053;-90
2022/01/30 12:35:04;;;;;;;16.42;4.50;;;8.20;99.90;;;;;;4716893;30;20139;-90
2022/01/30 12:37:36;;;;;;;20.85;3.40;;;8.20;99.90;;;;;;4718625;30;20053;-90
2022/01/30 12:40:20;;;;;;;24.20;5.30;;;8.20;99.90;;;;;;4718606;30;20056;-89
2022/01/30 12:42:47;;;;;;;24.30;5.50;;;8.20;99.90;;;;;;4739869;30;20075;-89
2022/01/30 12:45:15;;;;;;;18.33;4.80;;;8.20;99.90;;;;;;4719185;30;20060;-89
2022/01/30 12:47:52;;;;;;;25.08;4.72;;;8.20;99.90;;;;;;4733226;30;20425;-90
2022/01/30 12:50:20;;;;;;;32.85;5.07;;;8.20;99.90;;;;;;4718529;30;20046;-91
2022/01/30 12:52:50;;;;;;;17.65;3.65;;;8.20;99.90;;;;;;4733200;30;20049;-90
2022/01/30 12:55:18;;;;;;;14.68;3.33;;;8.20;99.90;;;;;;4718470;30;20049;-89
2022/01/30 12:57:47;;;;;;;21.52;3.78;;;8.10;99.90;;;;;;4732630;30;20056;-90
2022/01/30 13:00:16;;;;;;;11.68;3.15;;;8.20;99.90;;;;;;4718138;30;20463;-89
2022/01/30 13:02:55;;;;;;;18.85;3.75;;;8.10;99.90;;;;;;4719989;30;20049;-90
2022/01/30 13:05:25;;;;;;;25.70;4.28;;;8.20;99.90;;;;;;4718434;30;20045;-89
2022/01/30 13:07:56;;;;;;;14.40;3.55;;;8.10;99.90;;;;;;4718135;30;20064;-89
2022/01/30 13:10:25;;;;;;;18.83;3.63;;;8.20;99.90;;;;;;4718082;30;20057;-89
2022/01/30 13:12:54;;;;;;;18.90;4.00;;;8.20;99.90;;;;;;4719636;30;20045;-90
2022/01/30 13:15:25;;;;;;;27.10;5.78;;;8.30;99.90;;;;;;4718847;30;20507;-90
2022/01/30 13:17:56;;;;;;;20.88;3.20;;;8.20;99.90;;;;;;4732391;30;20053;-89
2022/01/30 13:20:25;;;;;;;31.77;5.05;;;8.20;99.90;;;;;;4718140;30;20072;-90
2022/01/30 13:22:55;;;;;;;25.25;3.72;;;8.30;99.90;;;;;;4718206;30;20061;-90
2022/01/30 13:25:28;;;;;;;13.52;2.70;;;8.30;99.90;;;;;;4718010;30;20075;-90
2022/01/30 13:28:03;;;;;;;21.48;4.28;;;8.20;99.90;;;;;;4732231;30;20055;-90
2022/01/30 13:30:32;;;;;;;22.80;3.85;;;8.30;99.90;;;;;;4731767;30;20045;-90
2022/01/30 13:33:00;;;;;;;14.98;2.70;;;8.20;99.90;;;;;;4705961;30;20543;-89
2022/01/30 13:35:30;;;;;;;24.02;3.65;;;8.30;99.90;;;;;;4708891;30;20566;-89
2022/01/30 13:38:01;;;;;;;22.20;5.50;;;8.30;99.90;;;;;;4732223;30;20420;-90
2022/01/30 13:40:42;;;;;;;22.38;2.97;;;8.30;99.90;;;;;;4720925;30;20045;-91
2022/01/30 13:43:19;;;;;;;26.50;3.63;;;8.30;99.90;;;;;;4727522;30;20126;-90
2022/01/30 13:48:22;;;;;;;20.10;3.13;;;8.30;99.90;;;;;;4718631;30;20057;-90
2022/01/30 13:51:03;;;;;;;15.05;2.65;;;8.40;99.90;;;;;;4718580;30;20048;-90
2022/01/30 13:53:31;;;;;;;13.27;2.92;;;8.40;99.90;;;;;;4721321;30;20071;-90
2022/01/30 13:56:15;;;;;;;14.02;2.92;;;8.40;99.90;;;;;;4718528;30;20053;-90
2022/01/30 13:58:43;;;;;;;18.75;3.80;;;8.40;99.90;;;;;;4718910;30;20140;-90
2022/01/30 14:01:21;;;;;;;22.60;4.25;;;8.40;99.90;;;;;;4703438;30;20053;-90
2022/01/30 14:03:52;;;;;;;12.77;3.28;;;8.50;99.90;;;;;;4717833;30;20159;-90
2022/01/30 14:06:25;;;;;;;15.15;3.33;;;8.40;99.90;;;;;;4717619;30;20057;-90
2022/01/30 14:08:57;;;;;;;27.10;3.50;;;8.50;99.90;;;;;;4703487;30;20049;-90
2022/01/30 14:11:32;;;;;;;9.40;2.83;;;8.50;99.90;;;;;;4717455;30;20061;-90
2022/01/30 14:14:10;;;;;;;15.82;3.33;;;8.50;99.90;;;;;;4718684;30;20060;-90
2022/01/30 14:16:50;;;;;;;19.60;3.10;;;8.50;99.90;;;;;;4717137;30;20148;-90
2022/01/30 14:19:21;;;;;;;15.05;3.25;;;8.50;99.90;;;;;;4718376;30;20056;-90
2022/01/30 14:21:52;;;;;;;17.23;4.20;;;8.50;99.90;;;;;;4716903;30;20708;-89
2022/01/30 14:24:22;;;;;;;16.55;3.03;;;8.50;99.90;;;;;;4718296;30;20048;-90
2022/01/30 14:27:07;;;;;;;27.40;3.67;;;8.50;99.90;;;;;;4716930;30;20390;-90
2022/01/30 14:29:35;;;;;;;15.68;3.05;;;8.50;99.90;;;;;;4716762;30;20049;-90
2022/01/30 14:32:14;;;;;;;19.20;3.45;;;8.50;99.90;;;;;;4716584;30;20421;-90
2022/01/30 14:34:42;;;;;;;23.17;3.92;;;8.50;99.90;;;;;;4702531;30;20053;-90